sensor_id;sensor_type;location;lat;lon;timestamp;P1;durP1;ratioP1;P2;durP2;ratioP2
6334;SDS011;3200;48.204;11.576;2024-03-07T00:00:07;13.50;;;10.05;;
6334;SDS011;3200;48.204;11.576;2024-03-07T00:02:49;15.10;;;10.73;;
6334;SDS011;3200;48.204;11.576;2024-03-07T00:05:21;15.85;;;10.90;;
6334;SDS011;3200;48.204;11.576;2024-03-07T00:07:49;16.75;;;11.13;;
6334;SDS011;3200;48.204;11.576;2024-03-07T00:10:15;15.02;;;10.68;;
6334;SDS011;3200;48.204;11.576;2024-03-07T00:12:42;15.07;;;11.55;;
6334;SDS011;3200;48.204;11.576;2024-03-07T00:15:12;14.70;;;9.50;;
6334;SDS011;3200;48.204;11.576;2024-03-07T00:17:39;17.02;;;11.90;;
6334;SDS011;3200;48.204;11.576;2024-03-07T00:20:06;15.40;;;11.02;;
6334;SDS011;3200;48.204;11.576;2024-03-07T00:22:39;15.48;;;10.90;;
6334;SDS011;3200;48.204;11.576;2024-03-07T00:25:06;23.65;;;13.85;;
6334;SDS011;3200;48.204;11.576;2024-03-07T00:27:34;18.38;;;13.02;;
6334;SDS011;3200;48.204;11.576;2024-03-07T00:30:01;18.65;;;11.85;;
6334;SDS011;3200;48.204;11.576;2024-03-07T00:32:28;18.83;;;11.30;;
6334;SDS011;3200;48.204;11.576;2024-03-07T00:35:00;21.13;;;13.35;;
6334;SDS011;3200;48.204;11.576;2024-03-07T00:37:36;17.85;;;12.65;;
6334;SDS011;3200;48.204;11.576;2024-03-07T00:40:02;17.67;;;12.60;;
6334;SDS011;3200;48.204;11.576;2024-03-07T00:42:29;18.88;;;13.85;;
6334;SDS011;3200;48.204;11.576;2024-03-07T00:44:54;18.13;;;12.30;;
6334;SDS011;3200;48.204;11.576;2024-03-07T00:47:21;19.02;;;14.27;;
6334;SDS011;3200;48.204;11.576;2024-03-07T00:49:46;18.10;;;12.50;;
6334;SDS011;3200;48.204;11.576;2024-03-07T00:52:12;20.73;;;13.60;;
6334;SDS011;3200;48.204;11.576;2024-03-07T00:54:39;22.05;;;13.20;;
6334;SDS011;3200;48.204;11.576;2024-03-07T00:57:05;21.27;;;14.07;;
6334;SDS011;3200;48.204;11.576;2024-03-07T00:59:32;25.13;;;14.02;;
6334;SDS011;3200;48.204;11.576;2024-03-07T01:01:58;21.83;;;13.70;;
6334;SDS011;3200;48.204;11.576;2024-03-07T01:04:24;26.30;;;15.40;;
6334;SDS011;3200;48.204;11.576;2024-03-07T01:06:59;21.17;;;14.18;;
6334;SDS011;3200;48.204;11.576;2024-03-07T01:09:26;25.60;;;14.02;;
6334;SDS011;3200;48.204;11.576;2024-03-07T01:11:53;24.00;;;13.80;;
6334;SDS011;3200;48.204;11.576;2024-03-07T01:14:20;24.30;;;14.50;;
6334;SDS011;3200;48.204;11.576;2024-03-07T01:16:47;25.65;;;15.70;;
6334;SDS011;3200;48.204;11.576;2024-03-07T01:19:13;28.70;;;15.57;;
6334;SDS011;3200;48.204;11.576;2024-03-07T01:21:39;25.52;;;16.13;;
6334;SDS011;3200;48.204;11.576;2024-03-07T01:24:05;25.47;;;15.77;;
6334;SDS011;3200;48.204;11.576;2024-03-07T01:26:31;27.50;;;15.97;;
6334;SDS011;3200;48.204;11.576;2024-03-07T01:29:00;29.95;;;17.48;;
6334;SDS011;3200;48.204;11.576;2024-03-07T01:31:26;35.92;;;17.08;;
6334;SDS011;3200;48.204;11.576;2024-03-07T01:33:52;25.48;;;15.27;;
6334;SDS011;3200;48.204;11.576;2024-03-07T01:36:19;28.08;;;17.02;;
6334;SDS011;3200;48.204;11.576;2024-03-07T01:38:48;29.80;;;15.57;;
6334;SDS011;3200;48.204;11.576;2024-03-07T01:41:13;25.77;;;15.80;;
6334;SDS011;3200;48.204;11.576;2024-03-07T01:43:40;29.90;;;16.60;;
6334;SDS011;3200;48.204;11.576;2024-03-07T01:46:07;30.23;;;17.70;;
6334;SDS011;3200;48.204;11.576;2024-03-07T01:48:33;28.90;;;16.38;;
6334;SDS011;3200;48.204;11.576;2024-03-07T01:50:59;29.42;;;16.63;;
6334;SDS011;3200;48.204;11.576;2024-03-07T01:53:28;28.27;;;17.23;;
6334;SDS011;3200;48.204;11.576;2024-03-07T01:55:56;28.73;;;16.98;;
6334;SDS011;3200;48.204;11.576;2024-03-07T01:58:23;29.83;;;17.23;;
6334;SDS011;3200;48.204;11.576;2024-03-07T02:00:49;34.80;;;18.77;;
6334;SDS011;3200;48.204;11.576;2024-03-07T02:03:16;33.20;;;19.80;;
6334;SDS011;3200;48.204;11.576;2024-03-07T02:05:42;32.47;;;17.90;;
6334;SDS011;3200;48.204;11.576;2024-03-07T02:08:09;30.80;;;19.95;;
6334;SDS011;3200;48.204;11.576;2024-03-07T02:10:35;30.40;;;17.63;;
6334;SDS011;3200;48.204;11.576;2024-03-07T02:13:00;32.23;;;18.77;;
6334;SDS011;3200;48.204;11.576;2024-03-07T02:15:26;31.80;;;17.37;;
6334;SDS011;3200;48.204;11.576;2024-03-07T02:17:52;35.28;;;19.65;;
6334;SDS011;3200;48.204;11.576;2024-03-07T02:20:18;35.75;;;18.65;;
6334;SDS011;3200;48.204;11.576;2024-03-07T02:22:44;35.33;;;19.50;;
6334;SDS011;3200;48.204;11.576;2024-03-07T02:25:10;34.85;;;18.85;;
6334;SDS011;3200;48.204;11.576;2024-03-07T02:27:37;39.00;;;22.65;;
6334;SDS011;3200;48.204;11.576;2024-03-07T02:30:04;34.50;;;19.02;;
6334;SDS011;3200;48.204;11.576;2024-03-07T02:32:33;40.55;;;21.23;;
6334;SDS011;3200;48.204;11.576;2024-03-07T02:35:03;36.50;;;19.33;;
6334;SDS011;3200;48.204;11.576;2024-03-07T02:37:30;41.83;;;20.50;;
6334;SDS011;3200;48.204;11.576;2024-03-07T02:39:56;35.85;;;20.30;;
6334;SDS011;3200;48.204;11.576;2024-03-07T02:42:22;37.38;;;21.88;;
6334;SDS011;3200;48.204;11.576;2024-03-07T02:44:48;37.60;;;19.37;;
6334;SDS011;3200;48.204;11.576;2024-03-07T02:47:14;38.33;;;21.43;;
6334;SDS011;3200;48.204;11.576;2024-03-07T02:49:40;36.97;;;20.80;;
6334;SDS011;3200;48.204;11.576;2024-03-07T02:52:06;40.13;;;22.27;;
6334;SDS011;3200;48.204;11.576;2024-03-07T02:54:33;33.83;;;19.05;;
6334;SDS011;3200;48.204;11.576;2024-03-07T02:56:59;38.13;;;21.15;;
6334;SDS011;3200;48.204;11.576;2024-03-07T02:59:26;39.58;;;22.63;;
6334;SDS011;3200;48.204;11.576;2024-03-07T03:01:52;39.83;;;20.40;;
6334;SDS011;3200;48.204;11.576;2024-03-07T03:04:17;40.13;;;20.40;;
6334;SDS011;3200;48.204;11.576;2024-03-07T03:06:43;43.73;;;23.53;;
6334;SDS011;3200;48.204;11.576;2024-03-07T03:09:09;40.63;;;21.80;;
6334;SDS011;3200;48.204;11.576;2024-03-07T03:11:38;38.00;;;22.27;;
6334;SDS011;3200;48.204;11.576;2024-03-07T03:14:04;40.47;;;22.52;;
6334;SDS011;3200;48.204;11.576;2024-03-07T03:16:30;36.72;;;22.63;;
6334;SDS011;3200;48.204;11.576;2024-03-07T03:18:56;41.75;;;22.75;;
6334;SDS011;3200;48.204;11.576;2024-03-07T03:21:23;36.90;;;22.13;;
6334;SDS011;3200;48.204;11.576;2024-03-07T03:23:49;41.00;;;23.40;;
6334;SDS011;3200;48.204;11.576;2024-03-07T03:26:14;50.27;;;24.70;;
6334;SDS011;3200;48.204;11.576;2024-03-07T03:28:41;40.10;;;21.58;;
6334;SDS011;3200;48.204;11.576;2024-03-07T03:31:07;44.08;;;25.17;;
6334;SDS011;3200;48.204;11.576;2024-03-07T03:33:33;38.25;;;23.35;;
6334;SDS011;3200;48.204;11.576;2024-03-07T03:36:00;42.50;;;24.38;;
6334;SDS011;3200;48.204;11.576;2024-03-07T03:38:26;41.03;;;24.83;;
6334;SDS011;3200;48.204;11.576;2024-03-07T03:40:51;46.33;;;25.97;;
6334;SDS011;3200;48.204;11.576;2024-03-07T03:43:17;46.40;;;25.73;;
6334;SDS011;3200;48.204;11.576;2024-03-07T03:45:43;43.58;;;26.35;;
6334;SDS011;3200;48.204;11.576;2024-03-07T03:48:10;42.90;;;25.42;;
6334;SDS011;3200;48.204;11.576;2024-03-07T03:50:36;39.67;;;23.83;;
6334;SDS011;3200;48.204;11.576;2024-03-07T03:53:02;52.73;;;28.23;;
6334;SDS011;3200;48.204;11.576;2024-03-07T03:55:29;50.38;;;29.40;;
6334;SDS011;3200;48.204;11.576;2024-03-07T03:57:54;46.93;;;26.87;;
6334;SDS011;3200;48.204;11.576;2024-03-07T04:00:20;48.03;;;27.60;;
6334;SDS011;3200;48.204;11.576;2024-03-07T04:02:48;55.78;;;27.90;;
6334;SDS011;3200;48.204;11.576;2024-03-07T04:05:14;42.80;;;28.35;;
6334;SDS011;3200;48.204;11.576;2024-03-07T04:07:42;51.08;;;28.13;;
6334;SDS011;3200;48.204;11.576;2024-03-07T04:10:09;53.15;;;29.75;;
6334;SDS011;3200;48.204;11.576;2024-03-07T04:12:37;58.42;;;30.10;;
6334;SDS011;3200;48.204;11.576;2024-03-07T04:15:08;55.22;;;30.58;;
6334;SDS011;3200;48.204;11.576;2024-03-07T04:17:37;54.70;;;30.00;;
6334;SDS011;3200;48.204;11.576;2024-03-07T04:20:04;55.25;;;30.92;;
6334;SDS011;3200;48.204;11.576;2024-03-07T04:22:35;51.20;;;30.98;;
6334;SDS011;3200;48.204;11.576;2024-03-07T04:25:03;52.15;;;30.77;;
6334;SDS011;3200;48.204;11.576;2024-03-07T04:27:32;54.40;;;28.73;;
6334;SDS011;3200;48.204;11.576;2024-03-07T04:30:02;50.78;;;31.45;;
6334;SDS011;3200;48.204;11.576;2024-03-07T04:32:30;50.05;;;29.50;;
6334;SDS011;3200;48.204;11.576;2024-03-07T04:34:56;48.25;;;29.75;;
6334;SDS011;3200;48.204;11.576;2024-03-07T04:37:22;56.17;;;30.73;;
6334;SDS011;3200;48.204;11.576;2024-03-07T04:39:48;50.47;;;29.10;;
6334;SDS011;3200;48.204;11.576;2024-03-07T04:42:14;56.10;;;31.67;;
6334;SDS011;3200;48.204;11.576;2024-03-07T04:44:40;55.13;;;30.58;;
6334;SDS011;3200;48.204;11.576;2024-03-07T04:47:06;54.40;;;31.67;;
6334;SDS011;3200;48.204;11.576;2024-03-07T04:49:32;48.65;;;30.17;;
6334;SDS011;3200;48.204;11.576;2024-03-07T04:52:00;57.40;;;32.95;;
6334;SDS011;3200;48.204;11.576;2024-03-07T04:54:29;53.20;;;30.55;;
6334;SDS011;3200;48.204;11.576;2024-03-07T04:56:59;49.95;;;29.30;;
6334;SDS011;3200;48.204;11.576;2024-03-07T04:59:25;51.17;;;30.03;;
6334;SDS011;3200;48.204;11.576;2024-03-07T05:01:51;53.88;;;30.45;;
6334;SDS011;3200;48.204;11.576;2024-03-07T05:04:17;50.03;;;29.43;;
6334;SDS011;3200;48.204;11.576;2024-03-07T05:06:43;56.03;;;32.63;;
6334;SDS011;3200;48.204;11.576;2024-03-07T05:09:12;53.65;;;32.20;;
6334;SDS011;3200;48.204;11.576;2024-03-07T05:11:47;52.97;;;32.03;;
6334;SDS011;3200;48.204;11.576;2024-03-07T05:14:16;62.95;;;31.27;;
6334;SDS011;3200;48.204;11.576;2024-03-07T05:16:42;53.35;;;31.52;;
6334;SDS011;3200;48.204;11.576;2024-03-07T05:19:08;55.10;;;31.30;;
6334;SDS011;3200;48.204;11.576;2024-03-07T05:21:34;58.83;;;33.30;;
6334;SDS011;3200;48.204;11.576;2024-03-07T05:24:05;59.47;;;35.40;;
6334;SDS011;3200;48.204;11.576;2024-03-07T05:26:35;52.95;;;31.58;;
6334;SDS011;3200;48.204;11.576;2024-03-07T05:29:06;59.58;;;32.88;;
6334;SDS011;3200;48.204;11.576;2024-03-07T05:31:33;59.88;;;33.95;;
6334;SDS011;3200;48.204;11.576;2024-03-07T05:34:01;62.85;;;34.05;;
6334;SDS011;3200;48.204;11.576;2024-03-07T05:36:34;55.25;;;32.70;;
6334;SDS011;3200;48.204;11.576;2024-03-07T05:39:01;55.90;;;33.70;;
6334;SDS011;3200;48.204;11.576;2024-03-07T05:41:37;61.42;;;35.15;;
6334;SDS011;3200;48.204;11.576;2024-03-07T05:44:04;59.72;;;35.38;;
6334;SDS011;3200;48.204;11.576;2024-03-07T05:46:34;64.65;;;35.70;;
6334;SDS011;3200;48.204;11.576;2024-03-07T05:49:10;60.65;;;34.58;;
6334;SDS011;3200;48.204;11.576;2024-03-07T05:51:37;61.08;;;32.42;;
6334;SDS011;3200;48.204;11.576;2024-03-07T05:54:03;60.33;;;35.93;;
6334;SDS011;3200;48.204;11.576;2024-03-07T05:56:32;69.85;;;39.03;;
6334;SDS011;3200;48.204;11.576;2024-03-07T05:59:04;56.08;;;33.20;;
6334;SDS011;3200;48.204;11.576;2024-03-07T06:01:37;57.15;;;31.92;;
6334;SDS011;3200;48.204;11.576;2024-03-07T06:04:06;56.20;;;31.88;;
6334;SDS011;3200;48.204;11.576;2024-03-07T06:06:33;63.00;;;34.78;;
6334;SDS011;3200;48.204;11.576;2024-03-07T06:09:01;58.83;;;32.97;;
6334;SDS011;3200;48.204;11.576;2024-03-07T06:11:36;55.33;;;31.88;;
6334;SDS011;3200;48.204;11.576;2024-03-07T06:14:04;60.40;;;34.88;;
6334;SDS011;3200;48.204;11.576;2024-03-07T06:16:35;56.88;;;34.35;;
6334;SDS011;3200;48.204;11.576;2024-03-07T06:19:03;68.32;;;34.70;;
6334;SDS011;3200;48.204;11.576;2024-03-07T06:21:33;62.33;;;35.00;;
6334;SDS011;3200;48.204;11.576;2024-03-07T06:24:07;59.25;;;34.22;;
6334;SDS011;3200;48.204;11.576;2024-03-07T06:26:38;62.70;;;34.03;;
6334;SDS011;3200;48.204;11.576;2024-03-07T06:29:36;65.72;;;33.80;;
6334;SDS011;3200;48.204;11.576;2024-03-07T06:32:02;60.87;;;34.00;;
6334;SDS011;3200;48.204;11.576;2024-03-07T06:34:28;59.10;;;33.53;;
6334;SDS011;3200;48.204;11.576;2024-03-07T06:36:55;58.47;;;34.13;;
6334;SDS011;3200;48.204;11.576;2024-03-07T06:39:21;62.30;;;34.87;;
6334;SDS011;3200;48.204;11.576;2024-03-07T06:41:47;59.30;;;33.60;;
6334;SDS011;3200;48.204;11.576;2024-03-07T06:44:12;68.00;;;35.43;;
6334;SDS011;3200;48.204;11.576;2024-03-07T06:46:38;59.40;;;34.00;;
6334;SDS011;3200;48.204;11.576;2024-03-07T06:49:04;60.80;;;34.37;;
6334;SDS011;3200;48.204;11.576;2024-03-07T06:51:35;61.35;;;34.00;;
6334;SDS011;3200;48.204;11.576;2024-03-07T06:54:01;63.50;;;35.00;;
6334;SDS011;3200;48.204;11.576;2024-03-07T06:56:27;65.80;;;36.90;;
6334;SDS011;3200;48.204;11.576;2024-03-07T06:58:53;65.13;;;34.87;;
6334;SDS011;3200;48.204;11.576;2024-03-07T07:01:18;61.93;;;35.57;;
6334;SDS011;3200;48.204;11.576;2024-03-07T07:03:44;66.07;;;35.85;;
6334;SDS011;3200;48.204;11.576;2024-03-07T07:06:11;61.75;;;34.03;;
6334;SDS011;3200;48.204;11.576;2024-03-07T07:08:37;59.05;;;33.72;;
6334;SDS011;3200;48.204;11.576;2024-03-07T07:11:03;62.15;;;33.80;;
6334;SDS011;3200;48.204;11.576;2024-03-07T07:13:30;62.92;;;33.92;;
6334;SDS011;3200;48.204;11.576;2024-03-07T07:15:56;56.35;;;33.38;;
6334;SDS011;3200;48.204;11.576;2024-03-07T07:18:22;62.33;;;35.95;;
6334;SDS011;3200;48.204;11.576;2024-03-07T07:20:49;65.10;;;36.00;;
6334;SDS011;3200;48.204;11.576;2024-03-07T07:23:17;62.10;;;34.75;;
6334;SDS011;3200;48.204;11.576;2024-03-07T07:25:45;65.63;;;35.05;;
6334;SDS011;3200;48.204;11.576;2024-03-07T07:28:11;62.72;;;36.30;;
6334;SDS011;3200;48.204;11.576;2024-03-07T07:30:37;64.80;;;35.40;;
6334;SDS011;3200;48.204;11.576;2024-03-07T07:33:03;58.87;;;33.50;;
6334;SDS011;3200;48.204;11.576;2024-03-07T07:35:29;58.00;;;33.17;;
6334;SDS011;3200;48.204;11.576;2024-03-07T07:37:56;59.22;;;34.33;;
6334;SDS011;3200;48.204;11.576;2024-03-07T07:40:22;65.88;;;37.08;;
6334;SDS011;3200;48.204;11.576;2024-03-07T07:42:50;56.70;;;33.95;;
6334;SDS011;3200;48.204;11.576;2024-03-07T07:45:18;65.40;;;35.15;;
6334;SDS011;3200;48.204;11.576;2024-03-07T07:47:47;56.63;;;33.15;;
6334;SDS011;3200;48.204;11.576;2024-03-07T07:50:19;65.55;;;35.30;;
6334;SDS011;3200;48.204;11.576;2024-03-07T07:52:57;64.30;;;35.60;;
6334;SDS011;3200;48.204;11.576;2024-03-07T07:55:24;55.60;;;32.72;;
6334;SDS011;3200;48.204;11.576;2024-03-07T07:57:54;59.33;;;34.92;;
6334;SDS011;3200;48.204;11.576;2024-03-07T08:00:22;62.20;;;34.90;;
6334;SDS011;3200;48.204;11.576;2024-03-07T08:05:24;55.53;;;33.85;;
6334;SDS011;3200;48.204;11.576;2024-03-07T08:07:55;68.43;;;36.90;;
6334;SDS011;3200;48.204;11.576;2024-03-07T08:10:25;63.53;;;34.47;;
6334;SDS011;3200;48.204;11.576;2024-03-07T08:12:59;59.88;;;34.10;;
6334;SDS011;3200;48.204;11.576;2024-03-07T08:15:28;71.22;;;35.17;;
6334;SDS011;3200;48.204;11.576;2024-03-07T08:17:56;65.70;;;36.58;;
6334;SDS011;3200;48.204;11.576;2024-03-07T08:20:23;60.75;;;35.15;;
6334;SDS011;3200;48.204;11.576;2024-03-07T08:26:08;56.47;;;33.53;;
6334;SDS011;3200;48.204;11.576;2024-03-07T08:28:35;62.78;;;33.60;;
6334;SDS011;3200;48.204;11.576;2024-03-07T08:31:04;63.08;;;36.85;;
6334;SDS011;3200;48.204;11.576;2024-03-07T08:33:30;60.73;;;37.50;;
6334;SDS011;3200;48.204;11.576;2024-03-07T08:35:58;62.90;;;33.38;;
6334;SDS011;3200;48.204;11.576;2024-03-07T08:38:24;60.28;;;34.80;;
6334;SDS011;3200;48.204;11.576;2024-03-07T08:40:50;59.90;;;35.30;;
6334;SDS011;3200;48.204;11.576;2024-03-07T08:43:16;59.23;;;35.73;;
6334;SDS011;3200;48.204;11.576;2024-03-07T08:45:44;62.10;;;35.23;;
6334;SDS011;3200;48.204;11.576;2024-03-07T08:48:10;67.50;;;36.40;;
6334;SDS011;3200;48.204;11.576;2024-03-07T08:50:38;60.83;;;36.47;;
6334;SDS011;3200;48.204;11.576;2024-03-07T08:53:07;66.97;;;35.60;;
6334;SDS011;3200;48.204;11.576;2024-03-07T08:56:36;63.10;;;34.22;;
6334;SDS011;3200;48.204;11.576;2024-03-07T08:59:13;66.03;;;35.42;;
6334;SDS011;3200;48.204;11.576;2024-03-07T09:02:05;62.70;;;35.28;;
6334;SDS011;3200;48.204;11.576;2024-03-07T09:04:31;66.67;;;37.47;;
6334;SDS011;3200;48.204;11.576;2024-03-07T09:06:57;63.77;;;35.77;;
6334;SDS011;3200;48.204;11.576;2024-03-07T09:09:23;60.70;;;33.70;;
6334;SDS011;3200;48.204;11.576;2024-03-07T09:11:49;53.93;;;32.80;;
6334;SDS011;3200;48.204;11.576;2024-03-07T09:14:15;53.10;;;33.30;;
6334;SDS011;3200;48.204;11.576;2024-03-07T09:16:41;63.10;;;34.95;;
6334;SDS011;3200;48.204;11.576;2024-03-07T09:19:23;66.35;;;34.42;;
6334;SDS011;3200;48.204;11.576;2024-03-07T09:22:00;52.75;;;32.28;;
6334;SDS011;3200;48.204;11.576;2024-03-07T09:24:30;60.95;;;34.55;;
6334;SDS011;3200;48.204;11.576;2024-03-07T09:26:56;58.33;;;35.25;;
6334;SDS011;3200;48.204;11.576;2024-03-07T09:29:22;59.53;;;35.00;;
6334;SDS011;3200;48.204;11.576;2024-03-07T09:31:53;57.85;;;34.00;;
6334;SDS011;3200;48.204;11.576;2024-03-07T09:34:20;62.15;;;34.97;;
6334;SDS011;3200;48.204;11.576;2024-03-07T09:36:47;62.58;;;35.08;;
6334;SDS011;3200;48.204;11.576;2024-03-07T09:39:14;61.92;;;37.58;;
6334;SDS011;3200;48.204;11.576;2024-03-07T09:41:40;66.05;;;36.10;;
6334;SDS011;3200;48.204;11.576;2024-03-07T09:44:12;63.85;;;38.63;;
6334;SDS011;3200;48.204;11.576;2024-03-07T09:46:47;63.25;;;34.45;;
6334;SDS011;3200;48.204;11.576;2024-03-07T09:49:15;61.85;;;36.80;;
6334;SDS011;3200;48.204;11.576;2024-03-07T09:51:43;61.03;;;35.33;;
6334;SDS011;3200;48.204;11.576;2024-03-07T09:54:10;64.63;;;35.95;;
6334;SDS011;3200;48.204;11.576;2024-03-07T09:56:37;63.97;;;35.88;;
6334;SDS011;3200;48.204;11.576;2024-03-07T09:59:04;58.75;;;35.22;;
6334;SDS011;3200;48.204;11.576;2024-03-07T10:01:35;69.43;;;34.00;;
6334;SDS011;3200;48.204;11.576;2024-03-07T10:04:04;64.63;;;36.47;;
6334;SDS011;3200;48.204;11.576;2024-03-07T10:06:37;59.58;;;36.08;;
6334;SDS011;3200;48.204;11.576;2024-03-07T10:09:06;63.30;;;36.63;;
6334;SDS011;3200;48.204;11.576;2024-03-07T10:11:33;59.35;;;32.83;;
6334;SDS011;3200;48.204;11.576;2024-03-07T10:14:02;67.53;;;35.50;;
6334;SDS011;3200;48.204;11.576;2024-03-07T10:16:32;60.28;;;35.25;;
6334;SDS011;3200;48.204;11.576;2024-03-07T10:18:58;52.97;;;33.28;;
6334;SDS011;3200;48.204;11.576;2024-03-07T10:21:29;51.08;;;29.98;;
6334;SDS011;3200;48.204;11.576;2024-03-07T10:24:07;49.40;;;30.17;;
6334;SDS011;3200;48.204;11.576;2024-03-07T10:26:37;51.45;;;29.25;;
6334;SDS011;3200;48.204;11.576;2024-03-07T10:29:03;47.28;;;29.48;;
6334;SDS011;3200;48.204;11.576;2024-03-07T10:31:30;50.50;;;29.25;;
6334;SDS011;3200;48.204;11.576;2024-03-07T10:33:58;45.33;;;29.50;;
6334;SDS011;3200;48.204;11.576;2024-03-07T10:36:28;55.22;;;31.38;;
6334;SDS011;3200;48.204;11.576;2024-03-07T10:38:59;54.00;;;30.35;;
6334;SDS011;3200;48.204;11.576;2024-03-07T10:41:49;53.45;;;31.33;;
6334;SDS011;3200;48.204;11.576;2024-03-07T10:44:19;42.67;;;27.75;;
6334;SDS011;3200;48.204;11.576;2024-03-07T10:46:53;54.47;;;30.73;;
6334;SDS011;3200;48.204;11.576;2024-03-07T10:49:22;50.83;;;28.88;;
6334;SDS011;3200;48.204;11.576;2024-03-07T10:54:42;52.92;;;31.65;;
6334;SDS011;3200;48.204;11.576;2024-03-07T10:57:50;51.15;;;29.75;;
6334;SDS011;3200;48.204;11.576;2024-03-07T11:00:24;52.22;;;32.30;;
6334;SDS011;3200;48.204;11.576;2024-03-07T11:02:55;66.10;;;36.63;;
6334;SDS011;3200;48.204;11.576;2024-03-07T11:05:24;62.47;;;35.55;;
6334;SDS011;3200;48.204;11.576;2024-03-07T11:07:54;66.85;;;37.10;;
6334;SDS011;3200;48.204;11.576;2024-03-07T11:10:36;51.95;;;31.25;;
6334;SDS011;3200;48.204;11.576;2024-03-07T11:16:10;47.60;;;28.00;;
6334;SDS011;3200;48.204;11.576;2024-03-07T11:21:53;46.65;;;28.98;;
6334;SDS011;3200;48.204;11.576;2024-03-07T11:24:24;43.00;;;25.02;;
6334;SDS011;3200;48.204;11.576;2024-03-07T11:27:28;43.78;;;25.90;;
6334;SDS011;3200;48.204;11.576;2024-03-07T11:29:58;46.58;;;27.58;;
6334;SDS011;3200;48.204;11.576;2024-03-07T11:32:39;48.25;;;27.52;;
6334;SDS011;3200;48.204;11.576;2024-03-07T11:35:12;51.50;;;28.30;;
6334;SDS011;3200;48.204;11.576;2024-03-07T11:43:42;42.20;;;24.85;;
6334;SDS011;3200;48.204;11.576;2024-03-07T11:46:11;40.63;;;26.83;;
6334;SDS011;3200;48.204;11.576;2024-03-07T11:48:41;41.33;;;26.45;;
6334;SDS011;3200;48.204;11.576;2024-03-07T11:51:17;40.78;;;25.75;;
6334;SDS011;3200;48.204;11.576;2024-03-07T11:56:49;39.58;;;25.45;;
6334;SDS011;3200;48.204;11.576;2024-03-07T11:59:16;40.38;;;23.48;;
6334;SDS011;3200;48.204;11.576;2024-03-07T12:01:42;47.43;;;28.73;;
6334;SDS011;3200;48.204;11.576;2024-03-07T12:04:08;42.78;;;26.83;;
6334;SDS011;3200;48.204;11.576;2024-03-07T12:06:38;36.70;;;23.25;;
6334;SDS011;3200;48.204;11.576;2024-03-07T12:09:04;36.90;;;25.07;;
6334;SDS011;3200;48.204;11.576;2024-03-07T12:11:40;40.17;;;23.50;;
6334;SDS011;3200;48.204;11.576;2024-03-07T12:14:07;40.33;;;24.63;;
6334;SDS011;3200;48.204;11.576;2024-03-07T12:16:35;37.50;;;23.83;;
6334;SDS011;3200;48.204;11.576;2024-03-07T12:19:01;46.93;;;26.37;;
6334;SDS011;3200;48.204;11.576;2024-03-07T12:21:30;41.35;;;24.80;;
6334;SDS011;3200;48.204;11.576;2024-03-07T12:23:56;43.53;;;26.17;;
6334;SDS011;3200;48.204;11.576;2024-03-07T12:26:21;42.00;;;24.90;;
6334;SDS011;3200;48.204;11.576;2024-03-07T12:28:50;42.10;;;25.08;;
6334;SDS011;3200;48.204;11.576;2024-03-07T12:31:18;39.97;;;24.38;;
6334;SDS011;3200;48.204;11.576;2024-03-07T12:33:48;40.00;;;23.00;;
6334;SDS011;3200;48.204;11.576;2024-03-07T12:36:16;46.00;;;25.38;;
6334;SDS011;3200;48.204;11.576;2024-03-07T12:38:42;37.50;;;23.17;;
6334;SDS011;3200;48.204;11.576;2024-03-07T12:41:49;35.30;;;22.83;;
6334;SDS011;3200;48.204;11.576;2024-03-07T12:44:18;41.15;;;23.45;;
6334;SDS011;3200;48.204;11.576;2024-03-07T12:46:48;42.55;;;24.33;;
6334;SDS011;3200;48.204;11.576;2024-03-07T12:49:19;37.72;;;23.42;;
6334;SDS011;3200;48.204;11.576;2024-03-07T12:51:53;36.20;;;22.30;;
6334;SDS011;3200;48.204;11.576;2024-03-07T12:54:20;42.22;;;23.80;;
6334;SDS011;3200;48.204;11.576;2024-03-07T12:56:47;43.53;;;26.17;;
6334;SDS011;3200;48.204;11.576;2024-03-07T12:59:16;40.25;;;24.15;;
6334;SDS011;3200;48.204;11.576;2024-03-07T13:01:44;46.63;;;25.80;;
6334;SDS011;3200;48.204;11.576;2024-03-07T13:04:12;40.97;;;24.48;;
6334;SDS011;3200;48.204;11.576;2024-03-07T13:06:42;44.53;;;24.30;;
6334;SDS011;3200;48.204;11.576;2024-03-07T13:09:54;38.60;;;22.80;;
6334;SDS011;3200;48.204;11.576;2024-03-07T13:12:19;40.90;;;23.25;;
6334;SDS011;3200;48.204;11.576;2024-03-07T13:14:45;37.97;;;23.52;;
6334;SDS011;3200;48.204;11.576;2024-03-07T13:17:11;33.63;;;21.70;;
6334;SDS011;3200;48.204;11.576;2024-03-07T13:23:11;34.22;;;21.35;;
6334;SDS011;3200;48.204;11.576;2024-03-07T13:26:04;33.53;;;20.40;;
6334;SDS011;3200;48.204;11.576;2024-03-07T13:28:33;37.70;;;22.00;;
6334;SDS011;3200;48.204;11.576;2024-03-07T13:31:00;37.80;;;21.83;;
6334;SDS011;3200;48.204;11.576;2024-03-07T13:33:28;36.15;;;21.05;;
6334;SDS011;3200;48.204;11.576;2024-03-07T13:35:54;42.13;;;22.83;;
6334;SDS011;3200;48.204;11.576;2024-03-07T13:38:20;34.53;;;20.27;;
6334;SDS011;3200;48.204;11.576;2024-03-07T13:40:46;33.37;;;20.33;;
6334;SDS011;3200;48.204;11.576;2024-03-07T13:46:44;37.78;;;23.17;;
6334;SDS011;3200;48.204;11.576;2024-03-07T13:49:10;36.80;;;21.33;;
6334;SDS011;3200;48.204;11.576;2024-03-07T13:51:39;34.40;;;20.38;;
6334;SDS011;3200;48.204;11.576;2024-03-07T13:54:18;39.78;;;23.05;;
6334;SDS011;3200;48.204;11.576;2024-03-07T14:23:01;36.80;;;23.30;;
6334;SDS011;3200;48.204;11.576;2024-03-07T14:29:47;33.53;;;20.75;;
6334;SDS011;3200;48.204;11.576;2024-03-07T14:32:21;37.60;;;23.10;;
6334;SDS011;3200;48.204;11.576;2024-03-07T14:34:57;39.35;;;21.63;;
6334;SDS011;3200;48.204;11.576;2024-03-07T14:37:49;35.35;;;21.85;;
6334;SDS011;3200;48.204;11.576;2024-03-07T14:40:26;33.33;;;21.20;;
6334;SDS011;3200;48.204;11.576;2024-03-07T14:42:54;35.22;;;23.48;;
6334;SDS011;3200;48.204;11.576;2024-03-07T14:45:25;35.67;;;22.17;;
6334;SDS011;3200;48.204;11.576;2024-03-07T14:48:05;34.38;;;22.52;;
6334;SDS011;3200;48.204;11.576;2024-03-07T14:50:39;40.63;;;23.55;;
6334;SDS011;3200;48.204;11.576;2024-03-07T14:53:15;34.40;;;22.27;;
6334;SDS011;3200;48.204;11.576;2024-03-07T14:55:45;39.80;;;24.10;;
6334;SDS011;3200;48.204;11.576;2024-03-07T14:58:11;40.20;;;24.83;;
6334;SDS011;3200;48.204;11.576;2024-03-07T15:00:39;41.20;;;24.85;;
6334;SDS011;3200;48.204;11.576;2024-03-07T15:03:06;40.95;;;24.73;;
6334;SDS011;3200;48.204;11.576;2024-03-07T15:05:35;40.55;;;24.67;;
6334;SDS011;3200;48.204;11.576;2024-03-07T15:08:01;39.15;;;25.70;;
6334;SDS011;3200;48.204;11.576;2024-03-07T15:10:33;38.38;;;26.05;;
6334;SDS011;3200;48.204;11.576;2024-03-07T15:13:16;40.22;;;22.52;;
6334;SDS011;3200;48.204;11.576;2024-03-07T15:15:42;45.65;;;24.90;;
6334;SDS011;3200;48.204;11.576;2024-03-07T15:18:09;38.35;;;25.25;;
6334;SDS011;3200;48.204;11.576;2024-03-07T15:20:35;38.92;;;24.60;;
6334;SDS011;3200;48.204;11.576;2024-03-07T15:23:01;42.50;;;24.13;;
6334;SDS011;3200;48.204;11.576;2024-03-07T15:25:28;37.45;;;23.10;;
6334;SDS011;3200;48.204;11.576;2024-03-07T15:27:55;38.50;;;24.30;;
6334;SDS011;3200;48.204;11.576;2024-03-07T15:30:23;41.08;;;25.98;;
6334;SDS011;3200;48.204;11.576;2024-03-07T15:33:00;37.58;;;23.88;;
6334;SDS011;3200;48.204;11.576;2024-03-07T15:35:27;43.97;;;25.00;;
6334;SDS011;3200;48.204;11.576;2024-03-07T15:37:54;42.22;;;23.55;;
6334;SDS011;3200;48.204;11.576;2024-03-07T15:40:20;43.20;;;23.37;;
6334;SDS011;3200;48.204;11.576;2024-03-07T15:42:48;39.20;;;24.33;;
6334;SDS011;3200;48.204;11.576;2024-03-07T15:47:53;36.78;;;21.48;;